createdAt,value
2023-03-12T00:01:55.942Z,94411.53
2023-03-12T00:04:22.440Z,94406.44
2023-03-12T00:06:48.844Z,94415.63
2023-03-12T00:09:15.568Z,94417.25
2023-03-12T00:11:41.919Z,94421.22
2023-03-12T00:14:08.307Z,94424.31
2023-03-12T00:16:34.710Z,94418.91
2023-03-12T00:19:01.082Z,94412.50
2023-03-12T00:21:27.443Z,94416.28
2023-03-12T00:23:55.941Z,94418.09
2023-03-12T00:26:22.324Z,94415.47
2023-03-12T00:28:48.721Z,94419.03
2023-03-12T00:31:15.078Z,94414.63
2023-03-12T00:33:41.414Z,94412.00
2023-03-12T00:36:07.865Z,94411.34
2023-03-12T00:38:34.252Z,94413.00
2023-03-12T00:41:00.894Z,94415.44
2023-03-12T00:43:27.533Z,94413.66
2023-03-12T00:45:53.901Z,94416.41
2023-03-12T00:48:20.250Z,94424.00
2023-03-12T00:50:46.597Z,94429.41
2023-03-12T00:53:12.977Z,94428.41
2023-03-12T00:55:39.329Z,94432.03
2023-03-12T00:58:05.705Z,94436.78
2023-03-12T01:00:32.157Z,94443.84
2023-03-12T01:02:58.566Z,94439.09
2023-03-12T01:05:24.918Z,94440.56
2023-03-12T01:07:51.298Z,94449.75
2023-03-12T01:10:17.648Z,94446.78
2023-03-12T01:12:43.997Z,94449.38
2023-03-12T01:15:10.463Z,94452.00
2023-03-12T01:17:36.913Z,94445.44
2023-03-12T01:20:03.293Z,94448.06
2023-03-12T01:22:29.683Z,94453.00
2023-03-12T01:24:56.082Z,94452.69
2023-03-12T01:27:22.558Z,94456.97
2023-03-12T01:29:48.919Z,94442.00
2023-03-12T01:32:15.312Z,94447.91
2023-03-12T01:34:42.702Z,94452.03
2023-03-12T01:37:09.094Z,94446.47
2023-03-12T01:39:35.457Z,94443.00
2023-03-12T01:42:01.786Z,94449.56
2023-03-12T01:44:28.126Z,94448.44
2023-03-12T01:46:54.502Z,94455.00
2023-03-12T01:49:20.868Z,94454.84
2023-03-12T01:51:47.263Z,94454.00
2023-03-12T01:54:13.670Z,94451.88
2023-03-12T01:56:40.216Z,94443.19
2023-03-12T01:59:06.624Z,94452.53
2023-03-12T02:01:33.082Z,94454.69
2023-03-12T02:03:59.521Z,94445.81
2023-03-12T02:06:25.942Z,94444.31
2023-03-12T02:08:52.433Z,94453.16
2023-03-12T02:11:18.831Z,94451.72
2023-03-12T02:13:45.259Z,94457.28
2023-03-12T02:16:11.753Z,94463.19
2023-03-12T02:18:38.225Z,94466.81
2023-03-12T02:21:04.607Z,94467.28
2023-03-12T02:23:30.951Z,94461.03
2023-03-12T02:25:57.408Z,94460.53
2023-03-12T02:28:23.785Z,94461.88
2023-03-12T02:30:50.175Z,94459.28
2023-03-12T02:33:16.615Z,94451.75
2023-03-12T02:35:42.966Z,94446.84
2023-03-12T02:38:09.361Z,94441.56
2023-03-12T02:40:35.740Z,94436.72
2023-03-12T02:43:02.180Z,94426.19
2023-03-12T02:45:28.788Z,94416.94
2023-03-12T02:47:55.232Z,94404.91
2023-03-12T02:50:21.628Z,94385.69
2023-03-12T02:52:47.975Z,94372.00
2023-03-12T02:55:14.340Z,94368.38
2023-03-12T02:57:40.736Z,94354.78
2023-03-12T03:00:07.079Z,94363.16
2023-03-12T03:02:33.418Z,94371.41
2023-03-12T03:04:59.739Z,94372.00
2023-03-12T03:07:26.202Z,94380.53
2023-03-12T03:09:52.562Z,94386.00
2023-03-12T03:12:19.978Z,94397.94
2023-03-12T03:14:46.382Z,94394.66
2023-03-12T03:17:12.769Z,94395.88
2023-03-12T03:19:39.178Z,94406.94
2023-03-12T03:22:05.570Z,94403.91
2023-03-12T03:24:32.193Z,94409.69
2023-03-12T03:27:00.717Z,94417.00
2023-03-12T03:29:27.112Z,94406.84
2023-03-12T03:31:53.723Z,94405.84
2023-03-12T03:34:20.616Z,94417.53
2023-03-12T03:36:47.316Z,94425.56
2023-03-12T03:39:13.863Z,94424.97
2023-03-12T03:41:40.235Z,94413.22
2023-03-12T03:44:08.082Z,94398.81
2023-03-12T03:46:34.528Z,94403.81
2023-03-12T03:49:00.989Z,94412.00
2023-03-12T03:51:27.372Z,94416.59
2023-03-12T03:53:53.777Z,94419.25
2023-03-12T03:56:20.157Z,94405.81
2023-03-12T03:58:47.729Z,94399.59
2023-03-12T04:01:14.106Z,94396.31
2023-03-12T04:03:40.547Z,94398.28
2023-03-12T04:06:07.125Z,94399.50
2023-03-12T04:08:33.455Z,94392.59
2023-03-12T04:10:59.825Z,94387.03
2023-03-12T04:13:26.163Z,94388.06
2023-03-12T04:15:52.508Z,94381.66
2023-03-12T04:18:18.950Z,94390.00
2023-03-12T04:20:45.395Z,94392.81
2023-03-12T04:23:13.850Z,94401.53
2023-03-12T04:25:40.192Z,94407.94
2023-03-12T04:28:06.638Z,94419.13
2023-03-12T04:30:33.128Z,94430.94
2023-03-12T04:33:01.780Z,94449.69
2023-03-12T04:35:28.167Z,94452.53
2023-03-12T04:37:54.533Z,94483.59
2023-03-12T04:40:20.870Z,94489.19
2023-03-12T04:42:47.251Z,94491.50
2023-03-12T04:45:13.624Z,94495.44
2023-03-12T04:47:39.973Z,94486.06
2023-03-12T04:50:06.342Z,94482.63
2023-03-12T04:52:32.708Z,94483.44
2023-03-12T04:54:59.075Z,94494.94
2023-03-12T04:57:25.461Z,94487.53
2023-03-12T04:59:51.839Z,94493.13
2023-03-12T05:02:18.312Z,94499.69
2023-03-12T05:04:44.701Z,94506.78
2023-03-12T05:07:11.029Z,94504.63
2023-03-12T05:09:37.370Z,94504.13
2023-03-12T05:12:03.729Z,94508.88
2023-03-12T05:14:30.272Z,94502.16
2023-03-12T05:16:58.138Z,94509.88
2023-03-12T05:19:24.516Z,94512.16
2023-03-12T05:21:50.871Z,94513.13
2023-03-12T05:24:17.205Z,94517.38
2023-03-12T05:26:43.587Z,94514.25
2023-03-12T05:29:10.179Z,94510.78
2023-03-12T05:31:36.596Z,94515.50
2023-03-12T05:34:03.023Z,94518.13
2023-03-12T05:36:29.369Z,94526.50
2023-03-12T05:38:55.773Z,94523.41
2023-03-12T05:41:22.159Z,94532.13
2023-03-12T05:43:48.496Z,94533.47
2023-03-12T05:46:14.972Z,94536.56
2023-03-12T05:48:41.383Z,94531.78
2023-03-12T05:51:07.916Z,94532.63
2023-03-12T05:53:34.467Z,94544.91
2023-03-12T05:56:00.801Z,94544.19
2023-03-12T05:58:27.897Z,94547.19
2023-03-12T06:00:54.289Z,94552.88
2023-03-12T06:03:20.820Z,94554.41
2023-03-12T06:05:47.242Z,94551.13
2023-03-12T06:08:13.686Z,94548.13
2023-03-12T06:10:40.085Z,94541.25
2023-03-12T06:13:06.455Z,94541.22
2023-03-12T06:15:32.817Z,94534.94
2023-03-12T06:17:59.159Z,94552.53
2023-03-12T06:20:25.535Z,94552.22
2023-03-12T06:22:52.025Z,94551.19
2023-03-12T06:25:18.366Z,94551.03
2023-03-12T06:27:44.736Z,94549.72
2023-03-12T06:30:12.300Z,94559.59
2023-03-12T06:32:38.866Z,94557.63
2023-03-12T06:35:05.376Z,94566.16
2023-03-12T06:37:31.822Z,94555.94
2023-03-12T06:39:58.267Z,94554.94
2023-03-12T06:42:24.955Z,94554.78
2023-03-12T06:44:51.343Z,94566.81
2023-03-12T06:47:17.910Z,94569.59
2023-03-12T06:49:44.584Z,94569.78
2023-03-12T06:52:10.931Z,94563.72
2023-03-12T06:54:37.302Z,94569.47
2023-03-12T06:57:03.784Z,94570.19
2023-03-12T06:59:30.522Z,94571.16
2023-03-12T07:01:56.912Z,94572.00
2023-03-12T07:04:23.393Z,94573.13
2023-03-12T07:06:49.793Z,94584.69
2023-03-12T07:09:16.137Z,94583.34
2023-03-12T07:11:42.635Z,94574.47
2023-03-12T07:14:09.276Z,94580.44
2023-03-12T07:16:35.917Z,94578.16
2023-03-12T07:19:02.432Z,94574.81
2023-03-12T07:21:31.062Z,94573.53
2023-03-12T07:23:57.414Z,94576.44
2023-03-12T07:26:25.437Z,94587.28
2023-03-12T07:28:51.796Z,94588.25
2023-03-12T07:31:18.246Z,94582.69
2023-03-12T07:33:44.748Z,94590.25
2023-03-12T07:36:11.381Z,94590.69
2023-03-12T07:38:37.875Z,94599.44
2023-03-12T07:41:04.269Z,94613.88
2023-03-12T07:43:30.716Z,94614.53
2023-03-12T07:45:57.083Z,94624.22
2023-03-12T07:48:23.589Z,94607.75
2023-03-12T07:50:50.395Z,94616.19
2023-03-12T07:53:17.125Z,94603.31
2023-03-12T07:55:43.564Z,94598.13
2023-03-12T07:58:10.221Z,94607.91
2023-03-12T08:00:36.853Z,94609.38
2023-03-12T08:03:03.521Z,94606.75
2023-03-12T08:05:30.194Z,94616.44
2023-03-12T08:07:56.641Z,94612.75
2023-03-12T08:10:23.082Z,94616.19
2023-03-12T08:12:49.609Z,94614.31
2023-03-12T08:15:15.987Z,94617.41
2023-03-12T08:17:42.356Z,94619.28
2023-03-12T08:20:08.733Z,94624.72
2023-03-12T08:22:35.173Z,94621.63
2023-03-12T08:25:01.557Z,94616.53
2023-03-12T08:27:28.004Z,94622.34
2023-03-12T08:29:54.499Z,94621.81
2023-03-12T08:32:20.999Z,94629.31
2023-03-12T08:34:47.413Z,94631.66
2023-03-12T08:37:13.741Z,94634.75
2023-03-12T08:39:42.351Z,94640.75
2023-03-12T08:42:08.685Z,94638.94
2023-03-12T08:44:35.079Z,94650.41
2023-03-12T08:47:01.477Z,94650.06
2023-03-12T08:49:27.859Z,94642.06
2023-03-12T08:51:54.245Z,94642.63
2023-03-12T08:54:20.928Z,94653.16
2023-03-12T08:56:47.271Z,94655.91
2023-03-12T08:59:14.338Z,94652.06
2023-03-12T09:01:43.540Z,94656.44
2023-03-12T09:04:10.249Z,94655.53
2023-03-12T09:06:36.614Z,94659.91
2023-03-12T09:09:02.950Z,94660.09
2023-03-12T09:11:31.492Z,94663.75
2023-03-12T09:14:33.361Z,94659.63
2023-03-12T09:16:44.329Z,94654.47
2023-03-12T09:19:10.748Z,94665.47
2023-03-12T09:21:37.089Z,94669.50
2023-03-12T09:24:03.452Z,94664.56
2023-03-12T09:26:29.919Z,94672.75
2023-03-12T09:28:56.262Z,94669.97
2023-03-12T09:31:22.717Z,94679.69
2023-03-12T09:33:49.130Z,94686.97
2023-03-12T09:36:15.517Z,94688.78
2023-03-12T09:38:41.948Z,94694.22
2023-03-12T09:41:08.327Z,94703.22
2023-03-12T09:43:34.885Z,94703.31
2023-03-12T09:46:01.275Z,94704.53
2023-03-12T09:48:27.691Z,94716.56
2023-03-12T09:50:54.269Z,94715.28
2023-03-12T09:53:20.826Z,94728.56
2023-03-12T09:55:47.513Z,94742.84
2023-03-12T09:58:13.842Z,94725.91
2023-03-12T10:00:40.817Z,94743.69
2023-03-12T10:03:07.376Z,94740.13
2023-03-12T10:05:34.028Z,94741.50
2023-03-12T10:08:07.578Z,94736.72
2023-03-12T10:10:40.497Z,94737.56
2023-03-12T10:13:07.840Z,94750.44
2023-03-12T10:15:34.194Z,94754.81
2023-03-12T10:18:00.641Z,94746.69
2023-03-12T10:20:27.345Z,94746.50
2023-03-12T10:22:53.750Z,94749.22
2023-03-12T10:25:22.138Z,94756.81
2023-03-12T10:27:48.469Z,94753.69
2023-03-12T10:30:15.253Z,94779.59
2023-03-12T10:32:41.697Z,94773.13
2023-03-12T10:35:08.281Z,94769.22
2023-03-12T10:37:39.916Z,94762.69
2023-03-12T10:40:08.287Z,94760.31
2023-03-12T10:42:34.738Z,94772.88
2023-03-12T10:45:01.082Z,94772.22
2023-03-12T10:47:27.474Z,94784.38
2023-03-12T10:49:54.122Z,94781.38
2023-03-12T10:52:20.478Z,94779.50
2023-03-12T10:54:46.862Z,94780.69
2023-03-12T10:57:13.505Z,94790.00
2023-03-12T10:59:43.591Z,94797.09
2023-03-12T11:02:10.060Z,94804.19
2023-03-12T11:04:36.450Z,94795.63
2023-03-12T11:07:03.839Z,94798.06
2023-03-12T11:09:30.323Z,94805.31
2023-03-12T11:11:57.201Z,94811.59
2023-03-12T11:14:24.833Z,94815.81
2023-03-12T11:16:51.193Z,94809.25
2023-03-12T11:19:17.540Z,94817.09
2023-03-12T11:21:43.862Z,94814.63
2023-03-12T11:24:10.425Z,94811.34
2023-03-12T11:26:36.769Z,94806.09
2023-03-12T11:29:03.136Z,94815.22
2023-03-12T11:31:29.625Z,94809.38
2023-03-12T11:33:57.437Z,94806.31
2023-03-12T11:36:23.930Z,94809.84
2023-03-12T11:38:50.265Z,94820.94
2023-03-12T11:41:16.638Z,94824.81
2023-03-12T11:43:44.295Z,94814.38
2023-03-12T11:46:10.843Z,94811.44
2023-03-12T11:48:37.272Z,94808.44
2023-03-12T11:51:03.745Z,94814.09
2023-03-12T11:53:31.147Z,94816.41
2023-03-12T11:55:57.609Z,94822.09
2023-03-12T11:58:24.063Z,94825.25
2023-03-12T12:00:50.511Z,94822.66
2023-03-12T12:03:16.892Z,94818.72
2023-03-12T12:05:43.303Z,94810.13
2023-03-12T12:08:09.710Z,94805.03
2023-03-12T12:10:36.058Z,94793.03
2023-03-12T12:13:02.386Z,94793.38
2023-03-12T12:15:28.874Z,94802.63
2023-03-12T12:17:55.266Z,94798.69
2023-03-12T12:20:21.609Z,94792.94
2023-03-12T12:22:48.000Z,94787.63
2023-03-12T12:25:14.469Z,94799.63
2023-03-12T12:27:40.977Z,94806.00
2023-03-12T12:30:07.345Z,94785.94
2023-03-12T12:32:34.689Z,94776.41
2023-03-12T12:35:01.175Z,94784.72
2023-03-12T12:37:30.027Z,94780.38
2023-03-12T12:39:57.452Z,94783.88
2023-03-12T12:42:23.908Z,94770.56
2023-03-12T12:44:50.287Z,94762.75
2023-03-12T12:47:16.701Z,94764.00
2023-03-12T12:49:43.082Z,94754.91
2023-03-12T12:52:09.462Z,94760.72
2023-03-12T12:54:36.143Z,94762.84
2023-03-12T12:57:02.628Z,94765.88
2023-03-12T12:59:29.209Z,94750.72
2023-03-12T13:01:55.603Z,94756.44
2023-03-12T13:04:22.106Z,94757.13
2023-03-12T13:06:49.242Z,94752.16
2023-03-12T13:09:15.622Z,94760.41
2023-03-12T13:11:42.116Z,94752.66
2023-03-12T13:14:08.491Z,94754.94
2023-03-12T13:16:34.897Z,94753.44
2023-03-12T13:19:01.286Z,94746.66
2023-03-12T13:21:27.842Z,94752.13
2023-03-12T13:23:54.447Z,94746.59
2023-03-12T13:26:21.805Z,94742.66
2023-03-12T13:28:50.448Z,94743.19
2023-03-12T13:31:18.238Z,94735.66
2023-03-12T13:33:45.197Z,94739.63
2023-03-12T13:36:11.782Z,94750.31
2023-03-12T13:38:38.270Z,94742.94
2023-03-12T13:41:04.661Z,94747.84
2023-03-12T13:43:31.863Z,94755.81
2023-03-12T13:45:58.261Z,94748.22
2023-03-12T13:48:24.831Z,94747.19
2023-03-12T13:50:51.320Z,94737.78
2023-03-12T13:53:17.654Z,94733.69
2023-03-12T13:55:44.140Z,94721.94
2023-03-12T13:58:10.494Z,94718.00
2023-03-12T14:00:36.981Z,94717.78
2023-03-12T14:03:03.363Z,94713.69
2023-03-12T14:05:29.712Z,94719.94
2023-03-12T14:07:56.091Z,94708.50
2023-03-12T14:10:22.499Z,94713.81
2023-03-12T14:12:48.990Z,94710.63
2023-03-12T14:15:15.366Z,94712.22
2023-03-12T14:17:42.005Z,94714.78
2023-03-12T14:20:08.357Z,94715.63
2023-03-12T14:22:34.734Z,94705.75
2023-03-12T14:25:01.069Z,94707.63
2023-03-12T14:27:27.447Z,94691.50
2023-03-12T14:29:53.909Z,94695.56
2023-03-12T14:32:20.316Z,94688.59
2023-03-12T14:34:46.714Z,94692.81
2023-03-12T14:37:13.052Z,94698.81
2023-03-12T14:39:39.423Z,94697.72
2023-03-12T14:42:05.806Z,94684.06
2023-03-12T14:44:32.151Z,94692.28
2023-03-12T14:46:58.585Z,94691.50
2023-03-12T14:49:25.071Z,94695.59
2023-03-12T14:51:51.694Z,94698.09
2023-03-12T14:54:18.165Z,94715.66
2023-03-12T14:56:44.580Z,94705.44
2023-03-12T14:59:11.186Z,94698.56
2023-03-12T15:01:37.770Z,94701.00
2023-03-12T15:04:04.232Z,94698.81
2023-03-12T15:06:30.608Z,94691.06
2023-03-12T15:08:57.016Z,94692.13
2023-03-12T15:11:23.618Z,94690.84
2023-03-12T15:13:50.030Z,94686.66
2023-03-12T15:16:16.503Z,94691.84
2023-03-12T15:18:42.909Z,94674.44
2023-03-12T15:21:09.364Z,94701.75
2023-03-12T15:23:35.988Z,94701.97
2023-03-12T15:26:02.359Z,94698.75
2023-03-12T15:28:28.709Z,94698.41
2023-03-12T15:30:55.083Z,94693.91
2023-03-12T15:33:21.460Z,94692.06
2023-03-12T15:35:47.961Z,94697.78
2023-03-12T15:38:14.492Z,94690.44
2023-03-12T15:40:40.928Z,94699.63
2023-03-12T15:43:07.593Z,94704.50
2023-03-12T15:45:34.113Z,94694.94
2023-03-12T15:48:00.498Z,94693.91
2023-03-12T15:50:26.879Z,94684.50
2023-03-12T15:52:53.248Z,94687.72
2023-03-12T15:55:19.606Z,94689.81
2023-03-12T15:57:45.960Z,94693.28
2023-03-12T16:00:12.363Z,94683.66
2023-03-12T16:02:38.967Z,94691.94
2023-03-12T16:05:08.057Z,94685.81
2023-03-12T16:07:34.574Z,94693.81
2023-03-12T16:10:01.027Z,94687.03
2023-03-12T16:12:27.357Z,94690.03
2023-03-12T16:14:55.774Z,94692.91
2023-03-12T16:17:22.216Z,94700.81
2023-03-12T16:19:50.607Z,94706.53
2023-03-12T16:22:16.937Z,94693.94
2023-03-12T16:24:45.814Z,94686.38
2023-03-12T16:27:14.025Z,94687.72
2023-03-12T16:29:42.322Z,94686.06
2023-03-12T16:32:08.757Z,94697.25
2023-03-12T16:34:35.238Z,94701.16
2023-03-12T16:37:01.717Z,94701.81
2023-03-12T16:39:30.437Z,94693.81
2023-03-12T16:41:56.883Z,94691.28
2023-03-12T16:44:23.261Z,94683.47
2023-03-12T16:46:49.694Z,94683.03
2023-03-12T16:49:16.187Z,94684.63
2023-03-12T16:51:42.571Z,94678.69
2023-03-12T16:54:11.819Z,94676.81
2023-03-12T16:56:38.686Z,94682.13
2023-03-12T16:59:05.066Z,94682.25
2023-03-12T17:01:31.528Z,94681.81
2023-03-12T17:03:57.939Z,94677.06
2023-03-12T17:06:24.342Z,94674.13
2023-03-12T17:08:50.791Z,94664.94
2023-03-12T17:11:17.181Z,94668.69
2023-03-12T17:13:43.522Z,94659.22
2023-03-12T17:16:10.064Z,94657.53
2023-03-12T17:18:39.567Z,94664.72
2023-03-12T17:21:06.240Z,94664.47
2023-03-12T17:23:32.847Z,94661.94
2023-03-12T17:25:59.293Z,94662.78
2023-03-12T17:28:25.691Z,94655.03
2023-03-12T17:30:52.098Z,94649.47
2023-03-12T17:33:18.477Z,94641.41
2023-03-12T17:35:44.899Z,94640.97
2023-03-12T17:38:11.315Z,94637.63
2023-03-12T17:40:37.655Z,94645.28
2023-03-12T17:43:04.260Z,94641.69
2023-03-12T17:45:30.898Z,94658.34
2023-03-12T17:47:57.342Z,94654.88
2023-03-12T17:50:26.141Z,94660.28
2023-03-12T17:52:52.527Z,94661.13
2023-03-12T17:55:18.895Z,94667.91
2023-03-12T17:57:47.753Z,94675.97
2023-03-12T18:00:14.348Z,94687.13
2023-03-12T18:02:40.731Z,94683.28
2023-03-12T18:05:07.107Z,94696.72
2023-03-12T18:07:33.512Z,94700.84
2023-03-12T18:09:59.865Z,94710.88
2023-03-12T18:12:26.233Z,94709.84
2023-03-12T18:14:52.627Z,94702.56
2023-03-12T18:17:18.980Z,94710.56
2023-03-12T18:19:45.358Z,94712.69
2023-03-12T18:22:11.762Z,94719.16
2023-03-12T18:24:38.136Z,94713.03
2023-03-12T18:27:04.472Z,94718.72
2023-03-12T18:29:30.868Z,94724.28
2023-03-12T18:31:57.210Z,94720.34
2023-03-12T18:34:23.658Z,94724.34
2023-03-12T18:36:50.101Z,94718.50
2023-03-12T18:39:16.566Z,94725.56
2023-03-12T18:41:43.290Z,94728.34
2023-03-12T18:44:14.357Z,94732.81
2023-03-12T18:46:41.739Z,94722.22
2023-03-12T18:49:08.359Z,94730.50
2023-03-12T18:51:34.700Z,94723.47
2023-03-12T18:54:01.059Z,94731.63
2023-03-12T18:56:27.410Z,94727.06
2023-03-12T18:58:53.775Z,94731.84
2023-03-12T19:01:20.519Z,94726.09
2023-03-12T19:03:48.637Z,94728.81
2023-03-12T19:06:15.029Z,94719.19
2023-03-12T19:08:41.451Z,94725.50
2023-03-12T19:11:07.817Z,94716.22
2023-03-12T19:13:34.164Z,94723.34
2023-03-12T19:16:00.668Z,94723.03
2023-03-12T19:18:27.103Z,94730.91
2023-03-12T19:20:53.554Z,94739.88
2023-03-12T19:23:19.950Z,94743.91
2023-03-12T19:25:46.464Z,94754.66
2023-03-12T19:28:13.024Z,94768.56
2023-03-12T19:30:39.385Z,94767.94
2023-03-12T19:33:05.858Z,94761.38
2023-03-12T19:35:32.388Z,94764.03
2023-03-12T19:37:58.808Z,94763.84
2023-03-12T19:40:25.209Z,94758.56
2023-03-12T19:42:51.558Z,94769.47
2023-03-12T19:45:17.921Z,94766.00
2023-03-12T19:47:44.384Z,94758.28
2023-03-12T19:50:10.755Z,94753.00
2023-03-12T19:52:37.094Z,94765.84
2023-03-12T19:55:05.437Z,94761.25
2023-03-12T19:57:32.049Z,94764.91
2023-03-12T20:00:00.455Z,94764.38
2023-03-12T20:02:27.042Z,94754.19
2023-03-12T20:04:53.489Z,94763.25
2023-03-12T20:07:20.070Z,94771.50
2023-03-12T20:09:46.719Z,94780.38
2023-03-12T20:12:14.300Z,94767.56
2023-03-12T20:14:42.828Z,94775.59
2023-03-12T20:17:09.579Z,94775.94
2023-03-12T20:19:35.968Z,94777.44
2023-03-12T20:22:02.420Z,94769.88
2023-03-12T20:24:28.840Z,94776.16
2023-03-12T20:26:55.198Z,94777.28
2023-03-12T20:29:21.579Z,94773.31
2023-03-12T20:31:47.958Z,94774.47
2023-03-12T20:34:14.353Z,94773.66
2023-03-12T20:36:40.766Z,94770.69
2023-03-12T20:39:07.163Z,94778.78
2023-03-12T20:41:33.606Z,94764.13
2023-03-12T20:43:59.930Z,94773.66
2023-03-12T20:46:26.340Z,94764.28
2023-03-12T20:48:54.018Z,94757.84
2023-03-12T20:51:21.392Z,94764.13
2023-03-12T20:53:47.797Z,94753.59
2023-03-12T20:56:14.192Z,94757.84
2023-03-12T20:58:40.542Z,94756.53
2023-03-12T21:01:06.942Z,94755.72
2023-03-12T21:03:33.364Z,94755.56
2023-03-12T21:05:59.743Z,94747.66
2023-03-12T21:08:26.092Z,94746.00
2023-03-12T21:10:52.437Z,94736.97
2023-03-12T21:13:18.933Z,94743.91
2023-03-12T21:15:45.304Z,94743.22
2023-03-12T21:18:11.709Z,94747.31
2023-03-12T21:20:38.274Z,94734.00
2023-03-12T21:23:04.666Z,94737.94
2023-03-12T21:25:31.551Z,94723.47
2023-03-12T21:27:58.287Z,94723.47
2023-03-12T21:30:25.136Z,94726.09
2023-03-12T21:32:51.775Z,94713.91
2023-03-12T21:35:18.176Z,94718.53
2023-03-12T21:37:45.709Z,94720.50
2023-03-12T21:40:12.053Z,94704.03
2023-03-12T21:42:38.380Z,94716.25
2023-03-12T21:45:04.804Z,94719.53
2023-03-12T21:47:31.236Z,94723.78
2023-03-12T21:50:00.424Z,94718.38
2023-03-12T21:52:27.059Z,94708.84
2023-03-12T21:54:53.395Z,94712.63
2023-03-12T21:57:19.905Z,94710.34
2023-03-12T21:59:46.816Z,94701.13
2023-03-12T22:02:13.525Z,94699.16
2023-03-12T22:04:39.970Z,94711.66
2023-03-12T22:07:06.399Z,94711.31
2023-03-12T22:09:32.952Z,94707.38
2023-03-12T22:11:59.572Z,94710.66
2023-03-12T22:14:26.077Z,94711.13
2023-03-12T22:16:52.487Z,94698.16
2023-03-12T22:19:18.854Z,94703.09
2023-03-12T22:21:45.301Z,94700.47
2023-03-12T22:24:12.161Z,94700.63
2023-03-12T22:26:38.528Z,94702.28
2023-03-12T22:29:04.913Z,94695.72
2023-03-12T22:31:31.323Z,94693.25
2023-03-12T22:34:01.140Z,94700.00
2023-03-12T22:36:27.906Z,94701.44
2023-03-12T22:38:56.539Z,94703.59
2023-03-12T22:41:22.877Z,94713.63
2023-03-12T22:43:49.263Z,94698.16
2023-03-12T22:46:15.759Z,94705.72
2023-03-12T22:48:43.176Z,94707.34
2023-03-12T22:51:09.646Z,94713.94
2023-03-12T22:53:36.100Z,94702.09
2023-03-12T22:56:03.480Z,94699.34
2023-03-12T22:58:30.143Z,94706.06
2023-03-12T23:00:56.589Z,94691.28
2023-03-12T23:03:25.360Z,94689.63
2023-03-12T23:05:51.759Z,94699.16
2023-03-12T23:08:19.139Z,94704.91
2023-03-12T23:10:45.903Z,94694.38
2023-03-12T23:13:12.324Z,94699.81
2023-03-12T23:15:41.475Z,94690.78
2023-03-12T23:18:08.281Z,94684.34
2023-03-12T23:20:34.689Z,94681.41
2023-03-12T23:23:01.026Z,94682.72
2023-03-12T23:25:27.373Z,94679.75
2023-03-12T23:27:53.832Z,94677.94
2023-03-12T23:30:20.211Z,94679.75
2023-03-12T23:32:49.861Z,94672.38
2023-03-12T23:35:16.864Z,94668.75
2023-03-12T23:37:43.682Z,94672.50
2023-03-12T23:40:12.445Z,94665.28
2023-03-12T23:42:38.830Z,94656.44
2023-03-12T23:45:05.331Z,94650.81
2023-03-12T23:47:31.684Z,94651.16
2023-03-12T23:49:58.063Z,94637.66
2023-03-12T23:52:24.409Z,94639.34
2023-03-12T23:54:50.784Z,94636.03
2023-03-12T23:57:17.224Z,94633.72
2023-03-12T23:59:44.569Z,94633.41
